createdAt,value
2019-05-20T00:00:39.299Z,25.33
2019-05-20T00:03:09.031Z,25.63
2019-05-20T00:05:38.657Z,24.53
2019-05-20T00:08:08.329Z,25.43
2019-05-20T00:10:37.928Z,24.43
2019-05-20T00:13:07.565Z,25.33
2019-05-20T00:15:37.203Z,24.30
2019-05-20T00:18:07.928Z,26.27
2019-05-20T00:20:37.607Z,24.70
2019-05-20T00:23:07.358Z,25.70
2019-05-20T00:25:37.038Z,26.37
2019-05-20T00:28:06.641Z,25.00
2019-05-20T00:30:36.272Z,25.03
2019-05-20T00:33:05.859Z,25.37
2019-05-20T00:35:35.665Z,23.90
2019-05-20T00:38:05.293Z,22.93
2019-05-20T00:40:34.891Z,22.17
2019-05-20T00:43:04.600Z,21.97
2019-05-20T00:45:34.291Z,24.07
2019-05-20T00:48:04.006Z,24.10
2019-05-20T00:50:34.566Z,25.60
2019-05-20T00:53:04.183Z,24.83
2019-05-20T00:55:34.539Z,22.43
2019-05-20T00:58:04.140Z,25.50
2019-05-20T01:00:33.846Z,26.00
2019-05-20T01:03:03.558Z,23.07
2019-05-20T01:05:33.181Z,27.97
2019-05-20T01:08:02.789Z,25.70
2019-05-20T01:10:32.411Z,22.93
2019-05-20T01:13:02.096Z,28.13
2019-05-20T01:15:31.830Z,29.00
2019-05-20T01:18:01.426Z,28.07
2019-05-20T01:20:31.258Z,30.10
2019-05-20T01:23:00.862Z,28.43
2019-05-20T01:25:30.483Z,28.80
2019-05-20T01:28:00.096Z,31.70
2019-05-20T01:30:29.815Z,30.30
2019-05-20T01:33:12.775Z,28.70
2019-05-20T01:35:30.780Z,29.00
2019-05-20T01:38:00.386Z,27.00
2019-05-20T01:40:29.994Z,25.47
2019-05-20T01:42:59.823Z,24.43
2019-05-20T01:45:29.526Z,26.10
2019-05-20T01:47:59.153Z,26.07
2019-05-20T01:50:28.764Z,24.37
2019-05-20T01:52:58.420Z,28.97
2019-05-20T01:55:28.019Z,23.80
2019-05-20T01:57:57.866Z,23.97
2019-05-20T02:00:27.703Z,24.20
2019-05-20T02:02:57.322Z,25.23
2019-05-20T02:05:26.996Z,25.20
2019-05-20T02:07:56.927Z,23.90
2019-05-20T02:10:26.562Z,22.03
2019-05-20T02:12:56.174Z,21.97
2019-05-20T02:15:32.160Z,23.23
2019-05-20T02:18:01.846Z,22.20
2019-05-20T02:20:31.488Z,21.93
2019-05-20T02:23:16.669Z,21.53
2019-05-20T02:25:49.048Z,21.47
2019-05-20T02:28:18.709Z,20.80
2019-05-20T02:30:49.299Z,22.60
2019-05-20T02:33:19.028Z,25.87
2019-05-20T02:35:48.721Z,24.27
2019-05-20T02:38:18.392Z,19.33
2019-05-20T02:40:49.335Z,18.83
2019-05-20T02:43:19.038Z,22.50
2019-05-20T02:45:48.642Z,24.97
2019-05-20T02:48:18.278Z,25.10
2019-05-20T02:50:47.890Z,26.50
2019-05-20T02:53:17.680Z,24.23
2019-05-20T02:55:47.304Z,26.03
2019-05-20T02:58:16.952Z,26.63
2019-05-20T03:00:46.567Z,22.57
2019-05-20T03:03:16.177Z,23.30
2019-05-20T03:05:46.869Z,25.17
2019-05-20T03:08:16.461Z,24.23
2019-05-20T03:10:46.149Z,23.67
2019-05-20T03:13:16.722Z,24.93
2019-05-20T03:15:46.510Z,24.30
2019-05-20T03:18:16.135Z,21.07
2019-05-20T03:20:45.738Z,19.47
2019-05-20T03:23:15.351Z,17.60
2019-05-20T03:25:45.040Z,17.20
2019-05-20T03:28:14.651Z,20.20
2019-05-20T03:30:45.629Z,18.60
2019-05-20T03:33:15.271Z,16.87
2019-05-20T03:35:44.879Z,14.73
2019-05-20T03:38:14.480Z,15.63
2019-05-20T03:40:44.156Z,16.77
2019-05-20T03:43:13.774Z,18.40
2019-05-20T03:45:43.496Z,18.83
2019-05-20T03:48:13.112Z,17.20
2019-05-20T03:50:42.921Z,17.73
2019-05-20T03:53:12.528Z,16.90
2019-05-20T03:55:42.218Z,16.97
2019-05-20T03:58:13.513Z,15.60
2019-05-20T04:00:47.214Z,15.77
2019-05-20T04:03:17.288Z,16.50
2019-05-20T04:05:46.966Z,17.03
2019-05-20T04:08:16.668Z,16.93
2019-05-20T04:10:46.457Z,18.13
2019-05-20T04:13:16.154Z,16.93
2019-05-20T04:15:45.754Z,19.13
2019-05-20T04:18:15.371Z,21.37
2019-05-20T04:20:44.966Z,21.20
2019-05-20T04:23:14.573Z,20.10
2019-05-20T04:25:44.365Z,23.43
2019-05-20T04:28:13.968Z,22.70
2019-05-20T04:30:43.597Z,22.30
2019-05-20T04:33:13.242Z,21.53
2019-05-20T04:35:42.846Z,19.27
2019-05-20T04:38:12.486Z,17.73
2019-05-20T04:40:42.082Z,22.00
2019-05-20T04:43:11.839Z,18.60
2019-05-20T04:45:41.752Z,20.07
2019-05-20T04:48:13.861Z,19.80
2019-05-20T04:50:42.699Z,21.90
2019-05-20T04:53:12.333Z,23.13
2019-05-20T04:55:41.950Z,23.37
2019-05-20T04:58:11.569Z,25.20
2019-05-20T05:00:58.910Z,26.30
2019-05-20T05:03:28.562Z,26.83
2019-05-20T05:05:58.309Z,25.43
2019-05-20T05:08:28.151Z,28.87
2019-05-20T05:10:58.145Z,26.13
2019-05-20T05:13:28.038Z,26.87
2019-05-20T05:15:57.750Z,28.33
2019-05-20T05:18:27.517Z,24.73
2019-05-20T05:20:57.147Z,25.17
2019-05-20T05:23:27.006Z,23.27
2019-05-20T05:25:56.607Z,20.07
2019-05-20T05:28:26.209Z,23.40
2019-05-20T05:30:56.144Z,22.67
2019-05-20T05:33:25.769Z,19.73
2019-05-20T05:35:55.380Z,24.73
2019-05-20T05:38:25.006Z,23.10
2019-05-20T05:40:54.605Z,22.83
2019-05-20T05:43:24.221Z,22.57
2019-05-20T05:45:53.868Z,20.63
2019-05-20T05:48:23.797Z,20.33
2019-05-20T05:50:53.402Z,18.00
2019-05-20T05:53:23.027Z,18.50
2019-05-20T05:55:52.663Z,18.77
2019-05-20T05:58:23.314Z,18.00
2019-05-20T06:00:52.932Z,17.93
2019-05-20T06:03:22.607Z,17.50
2019-05-20T06:06:01.513Z,17.10
2019-05-20T06:08:23.704Z,16.27
2019-05-20T06:10:54.293Z,16.30
2019-05-20T06:13:23.934Z,15.23
2019-05-20T06:15:54.732Z,14.40
2019-05-20T06:18:25.395Z,13.13
2019-05-20T06:20:55.087Z,14.83
2019-05-20T06:23:24.778Z,14.13
2019-05-20T06:25:54.428Z,11.13
2019-05-20T06:28:24.174Z,14.77
2019-05-20T06:30:53.808Z,12.73
2019-05-20T06:33:23.487Z,13.37
2019-05-20T06:35:53.234Z,15.90
2019-05-20T06:38:42.155Z,14.53
2019-05-20T06:41:12.274Z,14.83
2019-05-20T06:43:42.006Z,15.83
2019-05-20T06:46:11.634Z,12.43
2019-05-20T06:48:41.359Z,15.80
2019-05-20T06:51:11.067Z,15.60
2019-05-20T06:53:40.657Z,15.77
2019-05-20T06:56:10.286Z,15.00
2019-05-20T06:58:39.911Z,14.27
2019-05-20T07:01:09.551Z,14.07
2019-05-20T07:03:39.243Z,12.33
2019-05-20T07:06:08.859Z,12.20
2019-05-20T07:08:38.482Z,13.20
2019-05-20T07:11:08.178Z,11.17
2019-05-20T07:13:38.802Z,12.50
2019-05-20T07:16:08.516Z,13.90
2019-05-20T07:18:38.130Z,11.73
2019-05-20T07:21:07.835Z,12.23
2019-05-20T07:23:37.512Z,10.03
2019-05-20T07:26:07.391Z,11.07
2019-05-20T07:28:37.001Z,12.33
2019-05-20T07:31:06.613Z,11.43
2019-05-20T07:33:36.241Z,12.57
2019-05-20T07:36:10.007Z,10.83
2019-05-20T07:38:38.299Z,12.40
2019-05-20T07:41:07.909Z,10.67
2019-05-20T07:43:37.710Z,10.40
2019-05-20T07:46:09.151Z,9.47
2019-05-20T07:48:40.086Z,9.70
2019-05-20T07:51:11.316Z,10.87
2019-05-20T07:53:41.942Z,11.23
2019-05-20T07:56:15.923Z,10.93
2019-05-20T07:58:49.747Z,10.90
2019-05-20T08:01:19.538Z,11.47
2019-05-20T08:03:50.295Z,11.23
2019-05-20T08:06:20.035Z,10.43
2019-05-20T08:08:49.854Z,10.20
2019-05-20T08:11:19.566Z,9.67
2019-05-20T08:13:49.276Z,9.93
2019-05-20T08:16:18.901Z,10.13
2019-05-20T08:18:48.538Z,10.73
2019-05-20T08:21:18.545Z,10.90
2019-05-20T08:23:50.264Z,10.27
2019-05-20T08:26:20.231Z,9.80
2019-05-20T08:28:49.864Z,11.23
2019-05-20T08:31:19.655Z,11.20
2019-05-20T08:33:49.375Z,10.70
2019-05-20T08:36:19.156Z,11.17
2019-05-20T08:38:48.758Z,9.70
2019-05-20T08:41:18.477Z,10.47
2019-05-20T08:43:48.184Z,8.00
2019-05-20T08:46:17.819Z,9.07
2019-05-20T08:48:47.453Z,9.90
2019-05-20T08:51:17.058Z,10.03
2019-05-20T08:53:46.887Z,10.30
2019-05-20T08:56:16.632Z,9.87
2019-05-20T08:58:46.417Z,9.50
2019-05-20T09:01:17.026Z,9.43
2019-05-20T09:03:46.665Z,11.00
2019-05-20T09:06:20.431Z,8.20
2019-05-20T09:08:47.789Z,8.77
2019-05-20T09:11:17.413Z,10.03
2019-05-20T09:13:47.067Z,9.27
2019-05-20T09:16:17.870Z,7.07
2019-05-20T09:18:47.576Z,8.10
2019-05-20T09:21:17.264Z,8.20
2019-05-20T09:23:46.890Z,9.87
2019-05-20T09:26:18.632Z,11.40
2019-05-20T09:28:48.268Z,9.20
2019-05-20T09:31:18.423Z,11.13
2019-05-20T09:33:48.251Z,10.37
2019-05-20T09:36:17.933Z,10.63
2019-05-20T09:38:47.593Z,10.53
2019-05-20T09:41:17.205Z,9.43
2019-05-20T09:43:46.998Z,9.27
2019-05-20T09:46:16.716Z,7.47
2019-05-20T09:48:46.434Z,7.07
2019-05-20T09:51:16.058Z,7.57
2019-05-20T09:53:45.686Z,7.57
2019-05-20T09:56:15.335Z,9.10
2019-05-20T09:58:44.949Z,7.50
2019-05-20T10:01:14.699Z,8.23
2019-05-20T10:03:44.473Z,10.67
2019-05-20T10:06:14.085Z,9.60
2019-05-20T10:08:45.314Z,10.63
2019-05-20T10:11:15.291Z,12.63
2019-05-20T10:13:46.039Z,11.57
2019-05-20T10:16:15.866Z,12.93
2019-05-20T10:18:45.648Z,14.60
2019-05-20T10:21:15.372Z,15.00
2019-05-20T10:23:45.119Z,15.83
2019-05-20T10:26:15.495Z,17.03
2019-05-20T10:28:47.427Z,15.37
2019-05-20T10:31:18.630Z,15.00
2019-05-20T10:33:50.722Z,16.53
2019-05-20T10:36:20.640Z,17.30
2019-05-20T10:38:58.653Z,17.70
2019-05-20T10:41:22.706Z,17.00
2019-05-20T10:43:52.472Z,14.73
2019-05-20T10:46:22.147Z,15.53
2019-05-20T10:48:51.962Z,16.20
2019-05-20T10:51:21.813Z,15.43
2019-05-20T10:53:51.689Z,15.50
2019-05-20T10:56:21.529Z,13.80
2019-05-20T10:58:51.262Z,16.33
2019-05-20T11:01:22.731Z,16.17
2019-05-20T11:03:53.624Z,15.90
2019-05-20T11:06:23.446Z,14.50
2019-05-20T11:08:53.347Z,13.77
2019-05-20T11:11:23.091Z,14.37
2019-05-20T11:13:52.921Z,13.07
2019-05-20T11:16:24.023Z,12.00
2019-05-20T11:18:53.839Z,11.80
2019-05-20T11:21:23.567Z,14.80
2019-05-20T11:23:54.487Z,14.40
2019-05-20T11:26:24.310Z,11.87
2019-05-20T11:28:54.739Z,11.43
2019-05-20T11:31:24.459Z,12.93
2019-05-20T11:33:57.543Z,14.20
2019-05-20T11:36:25.961Z,16.63
2019-05-20T11:38:56.120Z,14.77
2019-05-20T11:41:52.155Z,16.53
2019-05-20T11:43:58.386Z,18.33
2019-05-20T11:46:28.138Z,16.90
2019-05-20T11:48:57.935Z,18.43
2019-05-20T11:51:27.726Z,17.50
2019-05-20T11:53:57.578Z,20.97
2019-05-20T11:56:27.483Z,19.33
2019-05-20T11:58:57.661Z,22.90
2019-05-20T12:01:27.481Z,18.50
2019-05-20T12:03:57.245Z,18.13
2019-05-20T12:06:27.047Z,20.00
2019-05-20T12:08:57.362Z,19.90
2019-05-20T12:11:27.089Z,19.47
2019-05-20T12:13:57.783Z,17.87
2019-05-20T12:16:27.540Z,21.70
2019-05-20T12:18:57.408Z,23.20
2019-05-20T12:21:27.217Z,21.20
2019-05-20T12:23:57.363Z,23.10
2019-05-20T12:26:27.090Z,25.47
2019-05-20T12:28:56.858Z,19.40
2019-05-20T12:31:26.610Z,24.93
2019-05-20T12:33:56.594Z,21.90
2019-05-20T12:36:26.380Z,18.93
2019-05-20T12:38:56.398Z,19.10
2019-05-20T12:41:26.457Z,21.90
2019-05-20T12:44:10.868Z,22.17
2019-05-20T12:46:27.848Z,21.20
2019-05-20T12:48:57.731Z,23.10
2019-05-20T12:51:27.866Z,21.57
2019-05-20T12:53:57.723Z,23.30
2019-05-20T12:56:27.693Z,23.00
2019-05-20T12:58:57.410Z,25.90
2019-05-20T13:01:27.214Z,24.60
2019-05-20T13:03:57.325Z,24.43
2019-05-20T13:06:27.983Z,22.57
2019-05-20T13:08:58.522Z,22.13
2019-05-20T13:11:28.374Z,18.20
2019-05-20T13:13:59.648Z,20.00
2019-05-20T13:16:29.363Z,20.93
2019-05-20T13:19:00.013Z,19.53
2019-05-20T13:21:29.827Z,19.03
2019-05-20T13:24:01.194Z,20.83
2019-05-20T13:26:31.096Z,22.70
2019-05-20T13:29:00.894Z,21.40
2019-05-20T13:31:31.181Z,22.93
2019-05-20T13:34:01.338Z,24.40
2019-05-20T13:36:32.950Z,24.60
2019-05-20T13:39:04.447Z,24.77
2019-05-20T13:41:34.754Z,26.77
2019-05-20T13:44:06.893Z,32.50
2019-05-20T13:46:36.770Z,30.77
2019-05-20T13:49:07.100Z,31.50
2019-05-20T13:51:38.712Z,30.57
2019-05-20T13:54:08.632Z,33.07
2019-05-20T13:56:38.491Z,33.40
2019-05-20T13:59:08.536Z,33.43
2019-05-20T14:01:38.235Z,35.20
2019-05-20T14:04:08.020Z,35.73
2019-05-20T14:06:37.728Z,35.77
2019-05-20T14:09:07.899Z,33.77
2019-05-20T14:11:37.933Z,31.33
2019-05-20T14:14:07.771Z,30.77
2019-05-20T14:16:37.585Z,33.17
2019-05-20T14:19:08.328Z,30.43
2019-05-20T14:21:38.139Z,32.50
2019-05-20T14:24:08.573Z,33.53
2019-05-20T14:26:40.633Z,31.13
2019-05-20T14:29:11.434Z,27.17
2019-05-20T14:31:42.205Z,27.90
2019-05-20T14:34:11.930Z,27.13
2019-05-20T14:36:52.657Z,27.37
2019-05-20T14:39:20.240Z,32.10
2019-05-20T14:41:51.550Z,27.47
2019-05-20T14:44:21.271Z,28.47
2019-05-20T14:46:51.022Z,28.67
2019-05-20T14:49:20.754Z,26.10
2019-05-20T14:51:54.089Z,23.17
2019-05-20T14:54:23.833Z,24.13
2019-05-20T14:56:53.574Z,23.53
2019-05-20T14:59:23.225Z,20.67
2019-05-20T15:01:53.111Z,18.60
2019-05-20T15:04:22.817Z,17.07
2019-05-20T15:06:53.975Z,16.57
2019-05-20T15:09:23.738Z,16.27
2019-05-20T15:11:53.524Z,16.23
2019-05-20T15:14:23.437Z,15.87
2019-05-20T15:17:05.333Z,15.83
2019-05-20T15:19:35.020Z,13.83
2019-05-20T15:22:04.883Z,13.50
2019-05-20T15:24:34.548Z,14.60
2019-05-20T15:27:04.263Z,12.90
2019-05-20T15:29:34.120Z,13.37
2019-05-20T15:32:03.927Z,12.43
2019-05-20T15:34:33.651Z,11.53
2019-05-20T15:37:04.295Z,10.77
2019-05-20T15:39:34.063Z,14.10
2019-05-20T15:42:04.057Z,13.70
2019-05-20T15:44:33.698Z,13.80
2019-05-20T15:47:03.387Z,13.47
2019-05-20T15:49:33.013Z,13.43
2019-05-20T15:52:02.759Z,14.27
2019-05-20T15:54:32.378Z,14.80
2019-05-20T15:57:02.096Z,16.20
2019-05-20T15:59:44.729Z,15.27
2019-05-20T16:02:03.354Z,15.63
2019-05-20T16:04:33.991Z,15.93
2019-05-20T16:07:04.962Z,15.10
2019-05-20T16:09:34.666Z,15.00
2019-05-20T16:12:04.305Z,13.03
2019-05-20T16:14:33.939Z,18.07
2019-05-20T16:17:03.682Z,21.33
2019-05-20T16:19:33.475Z,18.00
2019-05-20T16:22:03.168Z,18.27
2019-05-20T16:24:32.853Z,21.73
2019-05-20T16:27:02.508Z,23.17
2019-05-20T16:29:32.131Z,22.27
2019-05-20T16:32:01.822Z,23.77
2019-05-20T16:34:31.449Z,24.10
2019-05-20T16:37:01.096Z,23.73
2019-05-20T16:39:31.197Z,23.40
2019-05-20T16:42:01.088Z,23.40
2019-05-20T16:44:30.964Z,20.27
2019-05-20T16:47:00.589Z,19.67
2019-05-20T16:49:30.284Z,17.77
2019-05-20T16:51:59.941Z,20.20
2019-05-20T16:54:29.627Z,22.40
2019-05-20T16:56:59.250Z,18.93
2019-05-20T16:59:28.884Z,19.53
2019-05-20T17:01:59.594Z,17.87
2019-05-20T17:04:29.331Z,20.47
2019-05-20T17:06:59.963Z,20.53
2019-05-20T17:09:29.609Z,21.20
2019-05-20T17:11:59.258Z,19.07
2019-05-20T17:14:28.861Z,18.30
2019-05-20T17:16:59.489Z,17.40
2019-05-20T17:19:29.182Z,15.73
2019-05-20T17:21:58.803Z,15.77
2019-05-20T17:24:28.411Z,16.10
2019-05-20T17:26:58.030Z,17.90
2019-05-20T17:29:27.747Z,17.50
2019-05-20T17:31:57.972Z,14.53
2019-05-20T17:34:27.641Z,13.53
2019-05-20T17:36:57.285Z,12.83
2019-05-20T17:39:26.899Z,12.97
2019-05-20T17:41:56.612Z,14.63
2019-05-20T17:44:26.324Z,14.47
2019-05-20T17:46:56.106Z,15.43
2019-05-20T17:49:25.810Z,16.80
2019-05-20T17:51:55.707Z,15.23
2019-05-20T17:54:27.160Z,16.07
2019-05-20T17:56:56.851Z,18.17
2019-05-20T17:59:26.692Z,20.37
2019-05-20T18:01:57.486Z,21.57
2019-05-20T18:04:27.182Z,21.60
2019-05-20T18:06:56.999Z,24.63
2019-05-20T18:09:29.426Z,26.30
2019-05-20T18:11:59.254Z,20.03
2019-05-20T18:14:28.954Z,20.60
2019-05-20T18:16:58.695Z,20.90
2019-05-20T18:19:28.342Z,21.87
2019-05-20T18:21:57.969Z,16.87
2019-05-20T18:24:27.606Z,21.67
2019-05-20T18:26:57.226Z,19.93
2019-05-20T18:29:26.934Z,22.50
2019-05-20T18:31:56.652Z,20.50
2019-05-20T18:34:26.268Z,18.27
2019-05-20T18:36:55.946Z,16.57
2019-05-20T18:39:26.590Z,20.13
2019-05-20T18:41:56.373Z,23.23
2019-05-20T18:44:26.138Z,20.17
2019-05-20T18:46:55.777Z,23.00
2019-05-20T18:49:25.387Z,23.03
2019-05-20T18:51:55.093Z,23.90
2019-05-20T18:54:24.782Z,22.00
2019-05-20T18:56:55.373Z,22.87
2019-05-20T18:59:25.143Z,25.83
2019-05-20T19:02:04.677Z,24.67
2019-05-20T19:04:26.186Z,22.40
2019-05-20T19:06:55.958Z,25.23
2019-05-20T19:09:25.573Z,26.63
2019-05-20T19:11:55.246Z,25.67
2019-05-20T19:14:24.918Z,26.17
2019-05-20T19:16:54.643Z,25.37
2019-05-20T19:19:24.374Z,28.33
2019-05-20T19:21:54.014Z,27.43
2019-05-20T19:24:23.674Z,28.73
2019-05-20T19:26:54.278Z,29.27
2019-05-20T19:29:24.240Z,24.30
2019-05-20T19:32:01.465Z,29.20
2019-05-20T19:34:25.325Z,25.80
2019-05-20T19:36:54.920Z,26.57
2019-05-20T19:39:24.526Z,24.43
2019-05-20T19:41:54.161Z,26.77
2019-05-20T19:44:23.787Z,26.43
2019-05-20T19:46:53.410Z,26.57
2019-05-20T19:49:23.040Z,25.40
2019-05-20T19:51:52.958Z,25.53
2019-05-20T19:54:22.629Z,28.60
2019-05-20T19:56:52.326Z,32.43
2019-05-20T19:59:21.941Z,30.50
2019-05-20T20:01:51.564Z,27.50
2019-05-20T20:04:21.254Z,28.10
2019-05-20T20:06:50.866Z,27.97
2019-05-20T20:09:20.502Z,27.27
2019-05-20T20:11:50.318Z,29.27
2019-05-20T20:14:19.948Z,26.17
2019-05-20T20:16:49.558Z,27.60
2019-05-20T20:19:19.218Z,28.13
2019-05-20T20:21:48.958Z,25.03
2019-05-20T20:24:18.748Z,27.00
2019-05-20T20:26:48.363Z,27.83
2019-05-20T20:29:18.074Z,26.33
2019-05-20T20:31:47.764Z,23.57
2019-05-20T20:34:17.397Z,30.93
2019-05-20T20:36:47.092Z,27.60
2019-05-20T20:39:16.734Z,30.37
2019-05-20T20:41:46.405Z,27.70
2019-05-20T20:44:16.094Z,28.13
2019-05-20T20:46:45.709Z,27.83
2019-05-20T20:49:15.311Z,29.27
2019-05-20T20:51:45.006Z,32.87
2019-05-20T20:54:14.640Z,32.43
2019-05-20T20:56:44.269Z,26.30
2019-05-20T20:59:13.890Z,31.10
2019-05-20T21:01:43.498Z,29.20
2019-05-20T21:04:13.178Z,26.73
2019-05-20T21:06:42.877Z,28.13
2019-05-20T21:09:12.499Z,28.57
2019-05-20T21:11:42.126Z,31.77
2019-05-20T21:14:11.736Z,29.83
2019-05-20T21:16:41.334Z,29.17
2019-05-20T21:19:10.941Z,32.07
2019-05-20T21:21:40.598Z,32.17
2019-05-20T21:24:10.306Z,28.47
2019-05-20T21:26:39.914Z,28.43
2019-05-20T21:29:09.548Z,27.03
2019-05-20T21:31:39.170Z,29.40
2019-05-20T21:34:08.825Z,30.00
2019-05-20T21:36:47.002Z,28.73
2019-05-20T21:39:09.808Z,28.27
2019-05-20T21:41:39.503Z,26.27
2019-05-20T21:44:09.129Z,26.93
2019-05-20T21:46:38.729Z,27.70
2019-05-20T21:49:08.329Z,28.33
2019-05-20T21:51:37.937Z,28.00
2019-05-20T21:54:08.646Z,28.23
2019-05-20T21:56:38.279Z,28.37
2019-05-20T21:59:07.935Z,24.37
2019-05-20T22:01:37.670Z,27.97
2019-05-20T22:04:07.291Z,26.77
2019-05-20T22:06:36.898Z,26.63
2019-05-20T22:09:07.082Z,27.27
2019-05-20T22:11:36.766Z,27.17
2019-05-20T22:14:06.513Z,23.83
2019-05-20T22:16:36.646Z,29.27
2019-05-20T22:19:06.277Z,26.80
2019-05-20T22:21:48.685Z,25.73
2019-05-20T22:24:18.563Z,24.77
2019-05-20T22:26:48.245Z,26.00
2019-05-20T22:29:17.918Z,23.67
2019-05-20T22:31:47.532Z,22.63
2019-05-20T22:34:17.157Z,23.70
2019-05-20T22:36:46.769Z,23.10
2019-05-20T22:39:16.402Z,25.00
2019-05-20T22:41:46.066Z,22.03
2019-05-20T22:44:15.705Z,20.63
2019-05-20T22:46:45.332Z,22.43
2019-05-20T22:49:15.022Z,20.60
2019-05-20T22:51:44.705Z,21.20
2019-05-20T22:54:14.463Z,21.10
2019-05-20T22:56:44.193Z,21.00
2019-05-20T22:59:14.152Z,21.70
2019-05-20T23:01:43.849Z,20.90
2019-05-20T23:04:13.515Z,20.03
2019-05-20T23:06:43.138Z,18.33
2019-05-20T23:09:14.902Z,16.87
2019-05-20T23:11:44.115Z,18.83
2019-05-20T23:14:13.770Z,15.23
2019-05-20T23:16:43.398Z,16.57
2019-05-20T23:19:13.986Z,17.23
2019-05-20T23:21:44.840Z,15.03
2019-05-20T23:24:14.470Z,17.00
2019-05-20T23:26:44.188Z,15.43
2019-05-20T23:29:13.814Z,18.37
2019-05-20T23:31:43.414Z,16.43
2019-05-20T23:34:13.460Z,16.80
2019-05-20T23:36:43.162Z,15.27
2019-05-20T23:39:12.770Z,14.93
2019-05-20T23:41:42.546Z,15.10
2019-05-20T23:44:12.145Z,18.43
2019-05-20T23:46:41.754Z,18.30
2019-05-20T23:49:11.424Z,17.77
2019-05-20T23:51:41.054Z,18.90
2019-05-20T23:54:10.743Z,15.23
2019-05-20T23:56:40.450Z,17.73
2019-05-20T23:59:10.150Z,18.70
